Elnora, New York
Current Conditions -  °F | °C
As of 11:51 AM on Tuesday 27 Jan 2015 (Local Time) from KALB Reporting Station
Moderate Snow Moderate Snow  
Wind Chill: -17°   Ceiling: 700
Heat Index: -11°   Visibility: 0.5mi
Dew Point: -14°   Wind: 8mph
Humidity: 77%   Direction: 360°N
Pressure: 29.82"   Gusts: NA
Location:  42.8536°N, 73.7851°W
Report Text: KALB 271651Z 36007KT 1/2SM R01/2600V3500FT SN VV007 M11/M14 A2982 RMK AO2 SLP102 VIS NW-NE 1/4 SNINCR 1/2 P0005 T11061139
Loading
Personal Weather Stations






























Interactive Weather Map New forecast layout! Learn more

10-Day Weather Forecast

Advertisements
Track Severe Weather on mobile